Time;durP1;ratioP1;P1;durP2;ratioP2;P2;SDS_P1;SDS_P2;PMS_P1;PMS_P2;Temp;Humidity;BMP_temperature;BMP_pressure;BME280_temperature;BME280_humidity;BME280_pressure;Samples;Min_cycle;Max_cycle;Signal;HPM_P1;HPM_P2
2022/12/03 00:00:34;;;;;;;58.13;34.20;;;;;;;-0.93;71.20;102768.60;1725044;81;21081;-82
2022/12/03 00:03:02;;;;;;;49.73;31.07;;;;;;;-0.92;71.24;102762.30;1719995;83;20992;-82
2022/12/03 00:05:29;;;;;;;56.20;33.23;;;;;;;-0.93;71.21;102766.92;1721237;82;21405;-82
2022/12/03 00:07:56;;;;;;;52.00;31.40;;;;;;;-0.91;71.23;102760.62;1717511;82;20991;-88
2022/12/03 00:10:22;;;;;;;62.70;32.55;;;;;;;-0.87;71.30;102765.34;1712765;83;23057;-88
2022/12/03 00:12:49;;;;;;;54.45;31.75;;;;;;;-0.82;71.30;102764.16;1715477;83;21063;-89
2022/12/03 00:15:16;;;;;;;58.78;34.20;;;;;;;-0.82;71.24;102765.06;1712295;83;21082;-82
2022/12/03 00:17:46;;;;;;;54.93;32.85;;;;;;;-0.84;71.19;102756.63;1715881;83;21100;-82
2022/12/03 00:20:19;;;;;;;56.23;32.45;;;;;;;-0.87;71.11;102758.50;1712238;83;21024;-82
2022/12/03 00:22:46;;;;;;;60.08;30.72;;;;;;;-0.93;71.04;102763.05;1716528;83;21746;-82
2022/12/03 00:25:14;;;;;;;59.40;31.05;;;;;;;-0.93;71.19;102756.58;1712479;83;21021;-82
2022/12/03 00:27:40;;;;;;;51.95;32.42;;;;;;;-0.91;71.18;102758.04;1718729;83;20977;-82
2022/12/03 00:30:08;;;;;;;58.23;32.85;;;;;;;-0.95;71.14;102756.80;1688103;83;21109;-82
2022/12/03 00:32:35;;;;;;;57.50;33.18;;;;;;;-0.95;71.12;102763.27;1713371;83;21090;-82
2022/12/03 00:35:02;;;;;;;62.88;33.08;;;;;;;-0.98;71.11;102764.23;1714764;83;21769;-82
2022/12/03 00:37:29;;;;;;;62.15;34.18;;;;;;;-0.97;71.11;102766.46;1713918;83;21079;-82
2022/12/03 00:39:56;;;;;;;67.37;36.28;;;;;;;-1.02;71.14;102762.99;1712309;83;21489;-88
2022/12/03 00:42:24;;;;;;;63.05;34.13;;;;;;;-1.04;71.19;102762.31;1709727;83;21103;-82
2022/12/03 00:44:50;;;;;;;57.13;34.63;;;;;;;-1.04;71.29;102767.48;1700028;83;21052;-87
2022/12/03 00:47:17;;;;;;;58.95;34.92;;;;;;;-1.05;71.24;102769.16;1712493;83;21763;-81
2022/12/03 00:49:44;;;;;;;65.67;35.23;;;;;;;-1.05;71.32;102770.80;1709006;83;21711;-81
2022/12/03 00:52:11;;;;;;;59.70;33.92;;;;;;;-1.06;71.36;102768.61;1714442;83;21059;-81
2022/12/03 00:54:37;;;;;;;55.73;32.85;;;;;;;-1.06;71.33;102772.48;1712935;83;21549;-87
2022/12/03 00:57:04;;;;;;;59.03;32.28;;;;;;;-1.07;71.30;102780.07;1715621;83;21039;-80
2022/12/03 00:59:31;;;;;;;58.85;33.50;;;;;;;-1.13;71.30;102770.39;1716365;83;22921;-86
2022/12/03 01:01:58;;;;;;;53.42;30.92;;;;;;;-1.15;71.30;102775.40;1710726;83;21090;-81
2022/12/03 01:04:24;;;;;;;56.63;31.50;;;;;;;-1.18;71.27;102777.69;1714569;83;20973;-81
2022/12/03 01:06:51;;;;;;;62.03;33.00;;;;;;;-1.25;71.36;102779.98;1712441;82;21195;-81
2022/12/03 01:09:18;;;;;;;65.50;33.75;;;;;;;-1.25;71.48;102773.91;1716089;82;21552;-81
2022/12/03 01:11:45;;;;;;;61.18;32.25;;;;;;;-1.24;71.46;102773.14;1723577;82;21862;-88
2022/12/03 01:14:14;;;;;;;61.20;33.65;;;;;;;-1.26;71.48;102781.11;1716868;83;21035;-88
2022/12/03 01:16:42;;;;;;;66.07;33.60;;;;;;;-1.28;71.44;102777.45;1714108;82;21068;-88
2022/12/03 01:19:09;;;;;;;63.17;33.63;;;;;;;-1.29;71.50;102778.23;1724503;82;21058;-88
2022/12/03 01:21:36;;;;;;;59.67;32.10;;;;;;;-1.29;71.54;102766.60;1714229;82;21083;-82
2022/12/03 01:24:04;;;;;;;62.38;32.40;;;;;;;-1.34;71.42;102775.14;1714359;83;22523;-82
2022/12/03 01:26:31;;;;;;;62.50;32.98;;;;;;;-1.38;71.51;102772.61;1720132;82;21074;-82
2022/12/03 01:28:57;;;;;;;59.60;33.90;;;;;;;-1.39;71.56;102776.31;1713484;82;21083;-82
2022/12/03 01:34:09;;;;;;;53.15;32.42;;;;;;;-1.40;71.72;102772.83;1715638;83;21738;-89
2022/12/03 01:36:36;;;;;;;51.53;30.40;;;;;;;-1.45;71.52;102770.13;1714874;83;21755;-89
2022/12/03 01:39:03;;;;;;;54.42;32.30;;;;;;;-1.57;71.32;102770.14;1717803;82;21068;-82
2022/12/03 01:41:30;;;;;;;59.23;31.55;;;;;;;-1.65;71.42;102769.68;1717886;81;21063;-89
2022/12/03 01:43:57;;;;;;;60.90;33.60;;;;;;;-1.67;71.61;102768.25;1722633;82;21102;-82
2022/12/03 01:46:26;;;;;;;54.48;31.90;;;;;;;-1.66;71.69;102770.45;1702575;82;21150;-89
2022/12/03 01:48:53;;;;;;;56.20;33.18;;;;;;;-1.69;71.62;102763.66;1715885;82;21779;-89
2022/12/03 01:51:20;;;;;;;53.28;30.40;;;;;;;-1.75;71.64;102765.20;1715438;83;21528;-82
2022/12/03 01:53:47;;;;;;;51.00;30.30;;;;;;;-1.81;71.64;102760.69;1713061;82;21095;-89
2022/12/03 01:56:15;;;;;;;53.25;30.60;;;;;;;-1.87;71.68;102763.91;1717328;82;21614;-82
2022/12/03 01:58:41;;;;;;;56.20;33.10;;;;;;;-1.90;71.69;102764.86;1701994;81;21038;-88
2022/12/03 02:01:17;;;;;;;56.15;30.10;;;;;;;-1.97;71.80;102760.34;1696919;82;21684;-82
2022/12/03 02:03:44;;;;;;;56.95;30.43;;;;;;;-1.96;71.90;102762.16;1716253;81;21043;-82
2022/12/03 02:06:17;;;;;;;56.60;30.43;;;;;;;-1.98;71.91;102764.95;1714786;82;21090;-82
2022/12/03 02:08:43;;;;;;;53.33;31.87;;;;;;;-1.97;71.96;102763.31;1712573;82;21266;-89
2022/12/03 02:11:31;;;;;;;61.30;33.83;;;;;;;-1.95;71.95;102765.67;1718574;82;21040;-88
2022/12/03 02:14:05;;;;;;;58.15;33.15;;;;;;;-1.94;72.02;102762.33;1718005;82;21785;-83
2022/12/03 02:16:34;;;;;;;51.75;32.28;;;;;;;-1.92;71.97;102763.41;1726193;82;21039;-82
2022/12/03 02:19:01;;;;;;;61.13;33.25;;;;;;;-1.91;72.00;102769.13;1679987;83;21125;-88
2022/12/03 02:21:42;;;;;;;57.30;32.60;;;;;;;-1.87;71.97;102758.75;1719211;82;21056;-89
2022/12/03 02:24:35;;;;;;;64.62;33.85;;;;;;;-1.92;71.84;102759.92;1718336;82;21081;-81
2022/12/03 02:27:01;;;;;;;56.75;32.30;;;;;;;-1.92;71.91;102751.79;1716220;82;21878;-81
2022/12/03 02:29:34;;;;;;;58.35;32.38;;;;;;;-1.90;71.92;102755.45;1716558;83;21338;-88
2022/12/03 02:32:01;;;;;;;60.98;31.55;;;;;;;-1.90;71.89;102746.80;1690483;83;22189;-82
2022/12/03 02:34:42;;;;;;;62.35;33.60;;;;;;;-1.92;71.92;102743.14;1717891;82;21569;-81
2022/12/03 02:37:20;;;;;;;59.55;32.90;;;;;;;-1.93;71.81;102745.17;1714982;82;21133;-87
2022/12/03 02:39:50;;;;;;;59.80;31.20;;;;;;;-1.91;71.96;102738.53;1716817;82;21766;-86
2022/12/03 02:42:35;;;;;;;65.17;33.78;;;;;;;-1.89;71.94;102740.52;1717507;82;21098;-82
2022/12/03 02:45:19;;;;;;;64.03;36.10;;;;;;;-1.88;71.96;102740.12;1716013;82;21074;-87
2022/12/03 02:47:54;;;;;;;61.83;33.67;;;;;;;-1.89;72.00;102734.45;1719240;82;21054;-82
2022/12/03 02:50:23;;;;;;;63.10;35.13;;;;;;;-1.87;72.09;102740.30;1720992;83;21591;-82
2022/12/03 02:52:50;;;;;;;65.08;36.35;;;;;;;-1.84;72.14;102740.64;1713163;82;21813;-87
2022/12/03 02:55:17;;;;;;;67.75;38.33;;;;;;;-1.85;72.01;102743.95;1722621;83;21012;-82
2022/12/03 02:57:45;;;;;;;62.85;34.18;;;;;;;-1.87;71.99;102742.88;1716918;83;21092;-81
2022/12/03 03:00:13;;;;;;;66.30;36.80;;;;;;;-1.89;72.07;102740.52;1715977;82;21330;-88
2022/12/03 03:02:39;;;;;;;63.78;36.65;;;;;;;-1.87;72.15;102741.59;1716953;82;21101;-81
2022/12/03 03:05:07;;;;;;;72.22;37.15;;;;;;;-1.89;72.12;102739.61;1715856;83;21917;-81
2022/12/03 03:07:34;;;;;;;59.10;33.85;;;;;;;-1.85;72.23;102740.47;1697114;82;21923;-81
2022/12/03 03:10:03;;;;;;;62.33;34.03;;;;;;;-1.84;72.20;102735.48;1731500;82;21145;-83
2022/12/03 03:12:30;;;;;;;55.80;31.50;;;;;;;-1.86;72.06;102738.27;1720067;82;21136;-87
2022/12/03 03:14:57;;;;;;;58.80;32.90;;;;;;;-1.94;71.92;102741.68;1715751;82;21406;-87
2022/12/03 03:17:24;;;;;;;56.00;32.15;;;;;;;-2.02;71.90;102739.57;1715127;83;21757;-87
2022/12/03 03:19:50;;;;;;;62.78;31.93;;;;;;;-2.07;71.94;102740.73;1718345;82;21644;-82
2022/12/03 03:22:17;;;;;;;59.83;31.55;;;;;;;-2.04;72.11;102747.52;1714786;83;21135;-87
2022/12/03 03:24:44;;;;;;;57.65;31.90;;;;;;;-2.03;72.11;102744.56;1716472;83;21577;-81
2022/12/03 03:27:11;;;;;;;64.03;32.30;;;;;;;-2.02;72.17;102742.16;1713230;83;21282;-82
2022/12/03 03:29:37;;;;;;;59.25;31.95;;;;;;;-1.99;72.17;102742.49;1717931;82;21758;-87
2022/12/03 03:32:04;;;;;;;58.85;31.25;;;;;;;-2.01;72.15;102738.84;1715831;82;21290;-88
2022/12/03 03:34:31;;;;;;;59.42;32.42;;;;;;;-2.02;72.16;102740.86;1718877;82;21083;-82
2022/12/03 03:36:58;;;;;;;55.92;31.20;;;;;;;-2.03;72.18;102732.56;1715622;82;21369;-88
2022/12/03 03:39:27;;;;;;;58.73;31.17;;;;;;;-2.00;72.23;102726.84;1720659;82;21615;-88
2022/12/03 03:41:54;;;;;;;55.12;31.25;;;;;;;-1.99;72.21;102730.88;1713899;82;21766;-82
2022/12/03 03:44:21;;;;;;;53.42;30.30;;;;;;;-1.97;72.23;102729.76;1720012;82;21048;-87
2022/12/03 03:46:50;;;;;;;57.93;31.00;;;;;;;-1.99;72.15;102732.17;1714774;82;21107;-88
2022/12/03 03:49:16;;;;;;;53.83;30.27;;;;;;;-1.96;72.19;102726.41;1717249;81;21079;-82
2022/12/03 03:51:43;;;;;;;61.53;30.72;;;;;;;-2.00;72.07;102720.39;1716746;83;21546;-88
2022/12/03 03:54:10;;;;;;;58.15;30.43;;;;;;;-2.05;72.11;102716.00;1716123;82;21697;-82
2022/12/03 03:56:36;;;;;;;59.50;30.90;;;;;;;-2.07;72.14;102717.51;1718208;82;21095;-82
2022/12/03 03:59:03;;;;;;;56.92;29.67;;;;;;;-2.09;72.21;102720.69;1715154;83;21044;-88
2022/12/03 04:01:30;;;;;;;54.95;30.45;;;;;;;-2.09;72.24;102728.43;1720445;82;21048;-88
2022/12/03 04:03:58;;;;;;;59.15;31.12;;;;;;;-2.15;72.27;102719.27;1686556;83;21048;-82
2022/12/03 04:06:28;;;;;;;63.50;31.77;;;;;;;-2.12;72.39;102720.34;1715252;82;22585;-88
2022/12/03 04:08:55;;;;;;;54.83;27.80;;;;;;;-2.12;72.42;102718.70;1716354;82;21088;-81
2022/12/03 04:14:06;;;;;;;58.00;29.60;;;;;;;-2.24;72.29;102715.70;1716248;82;21163;-82
2022/12/03 04:16:33;;;;;;;58.98;30.15;;;;;;;-2.25;72.38;102714.23;1716453;82;21117;-81
2022/12/03 04:19:00;;;;;;;58.78;30.43;;;;;;;-2.27;72.50;102710.58;1714010;83;21182;-82
2022/12/03 04:24:11;;;;;;;56.30;29.37;;;;;;;-2.24;72.69;102710.53;1718809;82;21050;-88
2022/12/03 04:29:24;;;;;;;60.88;30.25;;;;;;;-2.29;72.68;102701.41;1713143;83;21581;-88
2022/12/03 04:37:22;;;;;;;54.80;29.77;;;;;;;-2.26;72.97;102699.14;1719917;82;21055;-87
2022/12/03 04:39:50;;;;;;;60.15;27.25;;;;;;;-2.23;72.92;102702.45;1720614;83;21088;-81
2022/12/03 04:42:17;;;;;;;55.23;28.95;;;;;;;-2.25;72.88;102696.17;1717969;82;21091;-87
2022/12/03 04:44:43;;;;;;;51.65;28.10;;;;;;;-2.25;73.02;102700.98;1714966;83;21802;-81
2022/12/03 04:47:13;;;;;;;59.15;30.48;;;;;;;-2.21;73.05;102695.78;1711578;83;22019;-82
2022/12/03 04:49:47;;;;;;;60.90;31.35;;;;;;;-2.20;72.91;102702.38;1713785;82;21089;-82
2022/12/03 04:52:17;;;;;;;58.33;31.75;;;;;;;-2.28;72.90;102700.64;1718148;82;21104;-82
2022/12/03 04:54:49;;;;;;;68.65;32.98;;;;;;;-2.30;73.07;102696.98;1720543;83;21077;-82
2022/12/03 04:57:16;;;;;;;71.47;35.90;;;;;;;-2.30;73.06;102690.54;1719910;83;22924;-88
2022/12/03 04:59:43;;;;;;;65.15;33.65;;;;;;;-2.28;73.13;102692.91;1721475;82;21365;-87
2022/12/03 05:02:10;;;;;;;67.37;32.70;;;;;;;-2.28;73.19;102686.45;1712335;83;21079;-88
2022/12/03 05:04:37;;;;;;;65.62;32.73;;;;;;;-2.23;73.24;102690.84;1720775;83;21097;-82
2022/12/03 05:09:46;;;;;;;69.27;35.50;;;;;;;-2.20;73.21;102685.98;1862133;76;22074;-87
2022/12/03 05:12:13;;;;;;;71.25;34.58;;;;;;;-2.24;73.27;102689.00;1828419;78;21601;-87
2022/12/03 05:14:39;;;;;;;62.95;33.90;;;;;;;-2.30;73.17;102691.83;1827790;78;21743;-87
2022/12/03 05:17:06;;;;;;;76.00;35.58;;;;;;;-2.38;73.22;102683.27;1831030;77;21367;-87
2022/12/03 05:22:18;;;;;;;72.58;35.58;;;;;;;-2.40;73.51;102683.48;1826966;77;21291;-87
2022/12/03 05:24:45;;;;;;;68.47;33.58;;;;;;;-2.43;73.52;102683.14;1833755;77;21092;-87
2022/12/03 05:27:12;;;;;;;76.53;35.68;;;;;;;-2.43;73.68;102686.10;1827245;77;21733;-88
2022/12/03 05:29:38;;;;;;;72.20;36.90;;;;;;;-2.41;73.87;102687.18;1826166;78;21082;-87
2022/12/03 05:32:05;;;;;;;67.40;36.03;;;;;;;-2.31;74.07;102680.05;1825768;78;21842;-82
2022/12/03 05:34:32;;;;;;;73.75;36.13;;;;;;;-2.26;73.98;102681.47;1825229;78;21046;-81
2022/12/03 05:36:59;;;;;;;70.17;37.17;;;;;;;-2.22;73.99;102675.88;1828891;77;21051;-86
2022/12/03 05:39:26;;;;;;;77.12;39.75;;;;;;;-2.18;74.00;102675.11;1828315;78;21746;-81
2022/12/03 05:44:39;;;;;;;71.80;37.38;;;;;;;-2.19;73.91;102677.13;1828183;77;21038;-84
2022/12/03 05:47:06;;;;;;;78.02;39.03;;;;;;;-2.12;73.99;102675.19;1825523;77;21179;-82
2022/12/03 05:49:33;;;;;;;73.15;36.98;;;;;;;-2.08;74.01;102677.00;1827325;77;21089;-84
2022/12/03 05:51:59;;;;;;;81.25;40.88;;;;;;;-2.02;74.10;102675.05;1840956;77;21788;-83
2022/12/03 05:54:26;;;;;;;73.90;39.70;;;;;;;-1.96;74.09;102666.66;1827790;77;20983;-83
2022/12/03 05:56:53;;;;;;;71.60;38.63;;;;;;;-1.90;73.96;102680.98;1830885;77;21002;-85
2022/12/03 05:59:20;;;;;;;67.35;34.33;;;;;;;-1.92;73.93;102675.65;1825835;78;21187;-84
2022/12/03 06:01:46;;;;;;;73.07;36.63;;;;;;;-1.90;73.88;102679.30;1826824;78;21099;-83
2022/12/03 06:04:13;;;;;;;72.05;36.00;;;;;;;-1.92;73.89;102674.36;1825451;78;22554;-82
2022/12/03 06:06:40;;;;;;;69.15;35.78;;;;;;;-1.87;73.97;102673.58;1831482;77;21023;-86
2022/12/03 06:09:06;;;;;;;72.17;35.30;;;;;;;-1.85;73.91;102679.42;1836645;76;21015;-82
2022/12/03 06:11:35;;;;;;;76.12;34.75;;;;;;;-1.88;73.80;102677.80;1830296;77;21389;-87
2022/12/03 06:14:06;;;;;;;73.22;37.30;;;;;;;-1.87;73.86;102674.87;1829753;78;21092;-84
2022/12/03 06:16:33;;;;;;;70.45;36.25;;;;;;;-1.88;73.89;102673.92;1831794;77;21765;-83
2022/12/03 06:18:59;;;;;;;70.80;35.63;;;;;;;-1.81;73.95;102676.41;1831925;77;21262;-83
2022/12/03 06:21:26;;;;;;;76.95;37.58;;;;;;;-1.76;73.92;102670.45;1830687;77;21045;-83
2022/12/03 06:23:54;;;;;;;68.00;34.08;;;;;;;-1.73;73.86;102668.56;1830160;77;21973;-86
2022/12/03 06:26:22;;;;;;;69.32;36.28;;;;;;;-1.75;73.78;102677.43;1831138;77;21133;-86
2022/12/03 06:28:49;;;;;;;68.33;35.50;;;;;;;-1.82;73.58;102672.37;1827661;77;22048;-83
2022/12/03 06:31:17;;;;;;;72.37;37.30;;;;;;;-1.86;73.68;102681.48;1828202;77;21077;-82
2022/12/03 06:33:44;;;;;;;78.78;38.65;;;;;;;-1.97;73.52;102677.76;1826156;78;21062;-82
2022/12/03 06:36:11;;;;;;;74.58;36.33;;;;;;;-2.08;73.62;102678.28;1835247;77;21106;-84
2022/12/03 06:38:38;;;;;;;76.82;37.98;;;;;;;-2.04;73.96;102688.56;1836911;77;21056;-83
2022/12/03 06:41:05;;;;;;;71.35;37.42;;;;;;;-1.99;74.01;102686.06;1836900;76;21856;-88
2022/12/03 06:43:32;;;;;;;73.02;37.08;;;;;;;-1.96;74.07;102674.41;1838826;77;21477;-87
2022/12/03 06:45:59;;;;;;;72.30;36.20;;;;;;;-1.96;74.05;102678.66;1828106;77;21750;-83
2022/12/03 06:48:25;;;;;;;70.22;35.73;;;;;;;-1.97;73.99;102681.63;1826147;77;21034;-84
2022/12/03 06:50:53;;;;;;;68.28;34.10;;;;;;;-1.99;74.08;102679.61;1825734;78;21082;-83
2022/12/03 06:53:22;;;;;;;73.52;36.58;;;;;;;-1.98;74.12;102679.78;1834936;77;22514;-85
2022/12/03 06:55:49;;;;;;;76.57;38.67;;;;;;;-1.92;74.23;102675.65;1838349;77;21372;-82
2022/12/03 06:58:16;;;;;;;70.57;36.53;;;;;;;-1.87;74.29;102678.73;1826715;78;21265;-81
2022/12/03 07:00:42;;;;;;;76.10;36.20;;;;;;;-1.86;74.21;102677.62;1831610;77;21146;-86
2022/12/03 07:03:09;;;;;;;82.15;38.50;;;;;;;-1.84;74.23;102673.52;1825665;78;21391;-86
2022/12/03 07:05:36;;;;;;;75.85;37.30;;;;;;;-1.82;74.22;102680.11;1831918;77;21758;-85
2022/12/03 07:08:04;;;;;;;67.27;34.78;;;;;;;-1.82;74.19;102670.73;1828521;77;21101;-85
2022/12/03 07:10:30;;;;;;;74.58;38.08;;;;;;;-1.80;74.21;102673.09;1825297;78;21383;-84
2022/12/03 07:12:57;;;;;;;71.85;36.38;;;;;;;-1.82;74.22;102674.95;1828300;77;21065;-84
2022/12/03 07:15:24;;;;;;;69.22;37.85;;;;;;;-1.83;74.15;102670.55;1824243;78;21085;-79
2022/12/03 07:17:51;;;;;;;77.53;38.78;;;;;;;-1.82;74.37;102668.14;1825586;77;22884;-83
2022/12/03 07:20:17;;;;;;;82.78;39.63;;;;;;;-1.77;74.45;102661.77;1823041;78;21063;-82
2022/12/03 07:22:44;;;;;;;74.62;39.05;;;;;;;-1.79;74.38;102660.70;1825851;78;21053;-79
2022/12/03 07:25:13;;;;;;;80.77;39.55;;;;;;;-1.86;74.37;102663.42;1825090;77;21142;-85
2022/12/03 07:27:40;;;;;;;81.02;37.70;;;;;;;-1.88;74.58;102667.47;1827657;78;21031;-85
2022/12/03 07:30:09;;;;;;;75.47;37.53;;;;;;;-1.84;74.93;102660.62;1827317;78;21740;-87
2022/12/03 07:32:36;;;;;;;79.17;38.98;;;;;;;-1.81;74.90;102657.05;1828933;78;21077;-81
2022/12/03 07:35:06;;;;;;;84.22;41.05;;;;;;;-1.74;75.09;102664.17;1827041;78;21006;-84
2022/12/03 07:37:34;;;;;;;79.75;39.30;;;;;;;-1.71;75.10;102667.95;1826208;78;21675;-84
2022/12/03 07:40:01;;;;;;;84.28;40.98;;;;;;;-1.65;75.11;102663.81;1832694;77;21704;-86
2022/12/03 07:42:28;;;;;;;75.28;38.30;;;;;;;-1.65;75.08;102665.10;1828710;77;22492;-87
2022/12/03 07:44:55;;;;;;;73.12;36.63;;;;;;;-1.64;75.04;102663.08;1831641;77;21067;-86
2022/12/03 07:47:24;;;;;;;81.28;40.98;;;;;;;-1.69;75.06;102665.19;1834057;77;21098;-89
2022/12/03 07:49:51;;;;;;;87.17;42.48;;;;;;;-1.77;75.07;102659.58;1845209;77;21017;-86
2022/12/03 07:52:18;;;;;;;81.47;42.05;;;;;;;-1.70;75.29;102663.73;1771522;80;21114;-87
2022/12/03 07:54:46;;;;;;;85.20;41.98;;;;;;;-1.70;75.40;102659.86;1770726;80;23249;-87
2022/12/03 07:57:14;;;;;;;80.55;40.23;;;;;;;-1.70;75.40;102657.28;1778902;79;21050;-88
2022/12/03 07:59:41;;;;;;;79.27;38.42;;;;;;;-1.67;75.53;102656.28;1782746;79;21045;-87
2022/12/03 08:02:08;;;;;;;70.78;37.23;;;;;;;-1.61;75.69;102659.15;1771364;79;22001;-86
2022/12/03 08:04:35;;;;;;;72.87;37.83;;;;;;;-1.51;75.71;102654.94;1777754;79;21069;-86
2022/12/03 08:07:02;;;;;;;69.00;35.75;;;;;;;-1.49;75.59;102655.62;1769105;80;22026;-81
2022/12/03 08:09:30;;;;;;;73.07;35.58;;;;;;;-1.48;75.43;102656.18;1765073;80;21130;-86
2022/12/03 08:11:59;;;;;;;75.57;38.10;;;;;;;-1.45;75.52;102656.47;1753154;80;21075;-87
2022/12/03 08:14:29;;;;;;;70.67;34.98;;;;;;;-1.41;75.59;102661.23;1732427;80;21097;-85
2022/12/03 08:17:13;;;;;;;77.45;38.30;;;;;;;-1.42;75.33;102655.52;1727981;81;21086;-85
2022/12/03 08:19:44;;;;;;;79.30;39.70;;;;;;;-1.46;75.44;102655.95;1777624;79;21781;-87
2022/12/03 08:22:12;;;;;;;70.72;36.65;;;;;;;-1.43;75.48;102656.25;1785170;79;21057;-84
2022/12/03 08:24:39;;;;;;;81.55;40.95;;;;;;;-1.44;75.47;102653.16;1785404;79;21053;-81
2022/12/03 08:27:18;;;;;;;74.80;39.42;;;;;;;-1.48;75.45;102652.30;1764542;80;21056;-86
2022/12/03 08:29:48;;;;;;;75.15;39.70;;;;;;;-1.46;75.71;102645.62;1746946;80;20978;-83
2022/12/03 08:32:14;;;;;;;77.60;38.60;;;;;;;-1.47;75.64;102651.53;1759589;80;21748;-87
2022/12/03 08:34:42;;;;;;;67.97;35.55;;;;;;;-1.51;75.63;102647.20;1766785;80;21006;-85
2022/12/03 08:37:17;;;;;;;66.95;34.30;;;;;;;-1.52;75.60;102651.81;1774157;80;21420;-87
2022/12/03 08:39:48;;;;;;;68.72;36.60;;;;;;;-1.56;75.70;102650.58;1777235;79;21078;-82
2022/12/03 08:42:40;;;;;;;60.88;33.95;;;;;;;-1.59;75.67;102652.86;1763443;79;21052;-83
2022/12/03 08:45:38;;;;;;;73.72;37.42;;;;;;;-1.63;75.61;102651.62;1780292;79;21781;-86
2022/12/03 08:48:35;;;;;;;73.90;36.53;;;;;;;-1.63;75.77;102652.01;1678038;83;21509;-84
2022/12/03 08:51:25;;;;;;;74.12;36.10;;;;;;;-1.63;75.89;102642.58;1657306;84;21075;-82
2022/12/03 08:53:58;;;;;;;80.95;39.13;;;;;;;-1.58;76.04;102643.98;1693229;83;21661;-85
2022/12/03 08:56:29;;;;;;;74.90;37.93;;;;;;;-1.58;75.93;102642.70;1673248;84;21093;-87
2022/12/03 08:58:59;;;;;;;79.97;39.23;;;;;;;-1.52;76.12;102644.06;1693510;84;21825;-85
2022/12/03 09:01:38;;;;;;;77.47;38.63;;;;;;;-1.46;76.11;102642.14;1695628;83;21083;-83
2022/12/03 09:04:30;;;;;;;80.60;38.83;;;;;;;-1.54;76.12;102630.98;1693773;83;21104;-82
2022/12/03 09:06:58;;;;;;;80.67;38.70;;;;;;;-1.41;76.12;102642.21;1694206;83;21167;-85
2022/12/03 09:09:24;;;;;;;87.88;40.70;;;;;;;-1.40;76.13;102637.59;1702618;81;21102;-84
2022/12/03 09:11:51;;;;;;;83.92;40.10;;;;;;;-1.37;76.28;102635.31;1721025;83;21737;-85
2022/12/03 09:14:21;;;;;;;80.03;40.38;;;;;;;-1.30;76.37;102633.90;1725925;83;21242;-85
2022/12/03 09:16:47;;;;;;;83.85;40.70;;;;;;;-1.24;76.30;102634.91;1723796;82;21559;-85
2022/12/03 09:19:14;;;;;;;87.02;40.23;;;;;;;-1.23;76.21;102635.45;1720461;83;21075;-85
2022/12/03 09:21:41;;;;;;;83.47;40.63;;;;;;;-1.16;76.31;102627.58;1740612;79;21546;-82
2022/12/03 09:24:08;;;;;;;83.97;41.70;;;;;;;-1.15;76.08;102628.48;1776924;79;22414;-83
2022/12/03 09:26:35;;;;;;;75.60;39.08;;;;;;;-1.19;75.94;102628.16;1788324;78;21297;-86
2022/12/03 09:29:02;;;;;;;82.50;40.00;;;;;;;-1.14;76.16;102629.03;1780906;79;21113;-83
2022/12/03 09:31:29;;;;;;;87.42;42.13;;;;;;;-1.10;76.21;102629.49;1797076;78;21048;-84
2022/12/03 09:33:56;;;;;;;84.35;41.68;;;;;;;-1.04;76.17;102623.64;1780961;79;21050;-83
2022/12/03 09:36:23;;;;;;;87.70;39.92;;;;;;;-1.04;76.03;102627.91;1785280;79;21983;-83
2022/12/03 09:38:50;;;;;;;88.45;41.35;;;;;;;-1.00;76.17;102627.07;1781163;79;21121;-80
2022/12/03 09:41:17;;;;;;;91.12;45.58;;;;;;;-0.95;76.10;102622.38;1775250;79;21030;-81
2022/12/03 09:43:43;;;;;;;93.65;42.25;;;;;;;-0.89;76.11;102626.87;1779815;79;21037;-81
2022/12/03 09:46:10;;;;;;;88.22;43.73;;;;;;;-0.87;76.05;102625.35;1778314;79;21042;-82
2022/12/03 09:48:37;;;;;;;90.17;43.28;;;;;;;-0.84;76.07;102626.97;1775347;79;22613;-81
2022/12/03 09:51:03;;;;;;;87.67;43.28;;;;;;;-0.85;75.98;102621.63;1781650;79;21066;-82
2022/12/03 09:53:30;;;;;;;92.90;43.70;;;;;;;-0.80;76.00;102623.02;1786392;79;21055;-83
2022/12/03 09:55:58;;;;;;;91.72;44.93;;;;;;;-0.81;75.96;102618.23;1713744;80;21607;-86
2022/12/03 09:58:26;;;;;;;88.62;42.60;;;;;;;-0.82;75.89;102613.81;1782027;79;21105;-86
2022/12/03 10:01:02;;;;;;;96.42;46.60;;;;;;;-0.77;76.01;102613.36;1785623;79;21757;-88
2022/12/03 10:03:32;;;;;;;91.28;43.75;;;;;;;-0.76;75.84;102611.31;1694575;82;21569;-86
2022/12/03 10:05:59;;;;;;;94.65;45.48;;;;;;;-0.81;75.63;102609.19;1691699;82;21596;-83
2022/12/03 10:08:26;;;;;;;94.05;46.02;;;;;;;-0.87;75.67;102607.64;1706643;82;21076;-82
2022/12/03 10:10:55;;;;;;;91.30;44.50;;;;;;;-0.81;75.95;102610.84;1695789;82;21101;-84
2022/12/03 10:13:25;;;;;;;89.40;44.10;;;;;;;-0.72;76.06;102606.59;1694933;82;22015;-85
2022/12/03 10:15:53;;;;;;;92.15;45.33;;;;;;;-0.67;75.96;102601.50;1698034;82;21124;-82
2022/12/03 10:18:29;;;;;;;95.20;45.65;;;;;;;-0.68;75.71;102600.95;1689510;82;21190;-87
2022/12/03 10:20:58;;;;;;;95.53;46.68;;;;;;;-0.67;75.77;102592.84;1703313;82;21589;-86
2022/12/03 10:23:28;;;;;;;92.62;42.60;;;;;;;-0.66;75.79;102593.00;1700050;82;21084;-84
2022/12/03 10:26:01;;;;;;;92.00;42.78;;;;;;;-0.66;75.62;102590.42;1695859;82;21797;-83
2022/12/03 10:28:33;;;;;;;94.62;45.92;;;;;;;-0.61;75.83;102589.56;1670161;83;21170;-82
2022/12/03 10:31:02;;;;;;;101.87;48.13;;;;;;;-0.54;75.78;102589.81;1692384;82;21607;-82
2022/12/03 10:33:32;;;;;;;95.38;46.15;;;;;;;-0.50;75.75;102593.23;1700245;82;21093;-85
2022/12/03 10:36:20;;;;;;;89.45;45.83;;;;;;;-0.51;75.63;102592.67;1685279;82;21143;-82
2022/12/03 10:39:10;;;;;;;95.45;48.02;;;;;;;-0.51;75.60;102583.63;1685580;82;21231;-87
2022/12/03 10:41:37;;;;;;;104.97;48.95;;;;;;;-0.49;75.61;102587.27;1748358;79;21114;-85
2022/12/03 10:44:22;;;;;;;90.40;45.33;;;;;;;-0.45;75.67;102588.10;1765554;79;21059;-85
2022/12/03 10:47:10;;;;;;;91.97;46.35;;;;;;;-0.46;75.61;102583.70;1769233;79;21097;-82
2022/12/03 10:49:38;;;;;;;92.97;46.25;;;;;;;-0.43;75.61;102581.05;1772783;79;21073;-85
2022/12/03 10:52:04;;;;;;;96.70;46.55;;;;;;;-0.41;75.58;102586.37;1772156;79;22545;-82
2022/12/03 10:54:32;;;;;;;98.70;48.40;;;;;;;-0.42;75.65;102584.53;1777293;79;21563;-82
2022/12/03 10:56:59;;;;;;;96.08;47.23;;;;;;;-0.45;75.51;102581.28;1769920;79;21402;-82
2022/12/03 10:59:32;;;;;;;99.65;47.62;;;;;;;-0.44;75.63;102585.67;1765167;79;21069;-84
2022/12/03 11:01:58;;;;;;;97.67;51.83;;;;;;;-0.42;75.74;102583.24;1770616;79;21062;-85
2022/12/03 11:04:34;;;;;;;99.75;49.40;;;;;;;-0.37;75.80;102582.03;1781606;79;22535;-82
2022/12/03 11:07:17;;;;;;;101.22;52.38;;;;;;;-0.29;75.84;102573.33;1768969;79;21106;-82
2022/12/03 11:09:45;;;;;;;;;;;;;;;-0.25;75.80;102571.56;1780583;79;21217;-84
2022/12/03 11:12:23;;;;;;;93.33;45.85;;;;;;;-0.18;75.91;102571.80;1774142;79;20989;-84
2022/12/03 11:14:56;;;;;;;88.78;44.75;;;;;;;-0.11;75.84;102571.64;1774068;79;21548;-85
2022/12/03 11:17:47;;;;;;;94.97;48.73;;;;;;;-0.02;75.80;102567.36;1770871;80;21766;-82
2022/12/03 11:20:27;;;;;;;100.80;48.17;;;;;;;0.01;75.61;102569.31;1777348;79;20990;-85
2022/12/03 11:22:55;;;;;;;83.67;42.83;;;;;;;0.05;75.60;102563.66;1770679;79;20984;-82
2022/12/03 11:25:30;;;;;;;101.62;49.98;;;;;;;0.07;75.50;102567.70;1777881;79;20982;-82
2022/12/03 11:28:15;;;;;;;91.57;46.58;;;;;;;0.03;75.37;102554.84;1783129;79;21018;-85
2022/12/03 11:30:55;;;;;;;83.95;44.65;;;;;;;0.04;75.36;102562.21;1746391;79;21745;-85
2022/12/03 11:33:29;;;;;;;92.80;45.65;;;;;;;-0.04;75.26;102551.13;1778199;79;21027;-85
2022/12/03 11:36:10;;;;;;;92.15;47.35;;;;;;;0.00;75.31;102550.68;1771670;79;21065;-85
2022/12/03 11:38:52;;;;;;;95.28;49.98;;;;;;;0.08;75.40;102552.70;1778153;79;21066;-85
2022/12/03 11:41:29;;;;;;;95.15;47.10;;;;;;;0.18;75.50;102552.81;1772809;79;21104;-85
2022/12/03 11:44:27;;;;;;;94.85;48.63;;;;;;;0.26;75.49;102547.06;1773184;79;21721;-82